sensor_id;sensor_type;location;lat;lon;timestamp;pressure;altitude;pressure_sealevel;temperature;humidity
70027;BME280;57506;50.092;15.804;2022-11-23T00:01:39;97958.53;;;2.37;100.00
70027;BME280;57506;50.092;15.804;2022-11-23T00:04:07;97989.50;;;2.61;100.00
70027;BME280;57506;50.092;15.804;2022-11-23T00:06:33;97974.78;;;2.50;100.00
70027;BME280;57506;50.092;15.804;2022-11-23T00:08:59;97988.16;;;2.65;100.00
70027;BME280;57506;50.092;15.804;2022-11-23T00:11:26;97999.38;;;2.83;100.00
70027;BME280;57506;50.092;15.804;2022-11-23T00:13:52;97979.03;;;2.67;100.00
70027;BME280;57506;50.092;15.804;2022-11-23T00:16:20;97979.84;;;2.68;100.00
70027;BME280;57506;50.092;15.804;2022-11-23T00:18:46;97989.09;;;2.80;100.00
70027;BME280;57506;50.092;15.804;2022-11-23T00:21:14;97998.69;;;2.89;100.00
70027;BME280;57506;50.092;15.804;2022-11-23T00:23:40;98005.13;;;2.95;100.00
70027;BME280;57506;50.092;15.804;2022-11-23T00:26:06;98012.47;;;2.93;100.00
70027;BME280;57506;50.092;15.804;2022-11-23T00:28:32;98007.38;;;2.83;100.00
70027;BME280;57506;50.092;15.804;2022-11-23T00:30:59;98005.88;;;2.80;100.00
70027;BME280;57506;50.092;15.804;2022-11-23T00:33:24;98000.06;;;2.77;100.00
70027;BME280;57506;50.092;15.804;2022-11-23T00:38:25;98002.22;;;2.81;100.00
70027;BME280;57506;50.092;15.804;2022-11-23T00:41:00;98000.38;;;2.82;100.00
70027;BME280;57506;50.092;15.804;2022-11-23T00:43:27;98001.38;;;2.81;100.00
70027;BME280;57506;50.092;15.804;2022-11-23T00:48:31;98018.81;;;2.92;100.00
70027;BME280;57506;50.092;15.804;2022-11-23T00:50:56;98010.03;;;2.83;100.00
70027;BME280;57506;50.092;15.804;2022-11-23T00:53:22;98017.00;;;2.84;100.00
70027;BME280;57506;50.092;15.804;2022-11-23T00:55:55;98014.69;;;2.81;100.00
70027;BME280;57506;50.092;15.804;2022-11-23T00:58:21;98001.56;;;2.79;100.00
70027;BME280;57506;50.092;15.804;2022-11-23T01:00:47;97994.28;;;2.73;100.00
70027;BME280;57506;50.092;15.804;2022-11-23T01:03:13;98005.38;;;2.85;100.00
70027;BME280;57506;50.092;15.804;2022-11-23T01:05:39;98005.06;;;2.80;100.00
70027;BME280;57506;50.092;15.804;2022-11-23T01:08:05;98007.53;;;2.90;100.00
70027;BME280;57506;50.092;15.804;2022-11-23T01:10:31;98009.00;;;2.92;100.00
70027;BME280;57506;50.092;15.804;2022-11-23T01:12:57;98001.28;;;2.74;100.00
70027;BME280;57506;50.092;15.804;2022-11-23T01:15:23;98002.72;;;2.77;100.00
70027;BME280;57506;50.092;15.804;2022-11-23T01:17:49;97968.59;;;2.58;100.00
70027;BME280;57506;50.092;15.804;2022-11-23T01:20:15;97980.50;;;2.70;100.00
70027;BME280;57506;50.092;15.804;2022-11-23T01:22:40;98004.09;;;2.73;100.00
70027;BME280;57506;50.092;15.804;2022-11-23T01:25:07;98017.06;;;2.76;100.00
70027;BME280;57506;50.092;15.804;2022-11-23T01:27:32;98008.09;;;2.69;100.00
70027;BME280;57506;50.092;15.804;2022-11-23T01:29:58;98007.28;;;2.68;100.00
70027;BME280;57506;50.092;15.804;2022-11-23T01:32:23;97999.47;;;2.67;100.00
70027;BME280;57506;50.092;15.804;2022-11-23T01:34:49;98003.09;;;2.74;100.00
70027;BME280;57506;50.092;15.804;2022-11-23T01:37:14;97951.56;;;2.36;100.00
70027;BME280;57506;50.092;15.804;2022-11-23T01:39:40;98020.53;;;2.76;100.00
70027;BME280;57506;50.092;15.804;2022-11-23T01:42:05;98017.09;;;2.68;100.00
70027;BME280;57506;50.092;15.804;2022-11-23T01:44:36;98015.09;;;2.70;100.00
70027;BME280;57506;50.092;15.804;2022-11-23T01:47:07;98006.94;;;2.71;100.00
70027;BME280;57506;50.092;15.804;2022-11-23T01:49:48;98016.09;;;2.69;100.00
70027;BME280;57506;50.092;15.804;2022-11-23T01:52:22;98018.06;;;2.75;100.00
70027;BME280;57506;50.092;15.804;2022-11-23T01:54:51;98027.13;;;2.58;100.00
70027;BME280;57506;50.092;15.804;2022-11-23T01:57:22;98012.50;;;2.45;100.00
70027;BME280;57506;50.092;15.804;2022-11-23T01:59:50;98000.22;;;2.44;100.00
70027;BME280;57506;50.092;15.804;2022-11-23T02:02:17;98021.78;;;2.58;100.00
70027;BME280;57506;50.092;15.804;2022-11-23T02:04:46;98008.31;;;2.59;100.00
70027;BME280;57506;50.092;15.804;2022-11-23T02:07:13;98016.31;;;2.59;100.00
70027;BME280;57506;50.092;15.804;2022-11-23T02:09:41;98004.91;;;2.42;100.00
70027;BME280;57506;50.092;15.804;2022-11-23T02:12:10;98030.06;;;2.63;100.00
70027;BME280;57506;50.092;15.804;2022-11-23T02:14:36;98022.91;;;2.63;100.00
70027;BME280;57506;50.092;15.804;2022-11-23T02:17:02;97999.88;;;2.47;100.00
70027;BME280;57506;50.092;15.804;2022-11-23T02:25:18;98015.44;;;2.67;100.00
70027;BME280;57506;50.092;15.804;2022-11-23T02:27:46;98018.09;;;2.67;100.00
70027;BME280;57506;50.092;15.804;2022-11-23T02:30:12;98023.75;;;2.64;100.00
70027;BME280;57506;50.092;15.804;2022-11-23T02:32:38;97993.06;;;2.45;100.00
70027;BME280;57506;50.092;15.804;2022-11-23T02:35:03;98001.53;;;2.49;100.00
70027;BME280;57506;50.092;15.804;2022-11-23T02:37:29;98009.22;;;2.43;100.00
70027;BME280;57506;50.092;15.804;2022-11-23T02:39:55;98014.03;;;2.40;100.00
70027;BME280;57506;50.092;15.804;2022-11-23T02:42:23;98020.19;;;2.40;100.00
70027;BME280;57506;50.092;15.804;2022-11-23T02:47:31;98013.06;;;2.33;100.00
70027;BME280;57506;50.092;15.804;2022-11-23T02:49:56;98011.06;;;2.35;100.00
70027;BME280;57506;50.092;15.804;2022-11-23T02:52:23;98003.59;;;2.30;100.00
70027;BME280;57506;50.092;15.804;2022-11-23T02:54:48;98016.88;;;2.38;100.00
70027;BME280;57506;50.092;15.804;2022-11-23T02:57:14;97997.31;;;2.23;100.00
70027;BME280;57506;50.092;15.804;2022-11-23T02:59:39;98024.03;;;2.30;100.00
70027;BME280;57506;50.092;15.804;2022-11-23T03:02:05;97999.31;;;2.13;100.00
70027;BME280;57506;50.092;15.804;2022-11-23T03:04:31;98020.72;;;2.20;100.00
70027;BME280;57506;50.092;15.804;2022-11-23T03:06:57;98017.56;;;2.16;100.00
70027;BME280;57506;50.092;15.804;2022-11-23T03:09:23;98022.41;;;2.13;100.00
70027;BME280;57506;50.092;15.804;2022-11-23T03:11:51;98023.59;;;2.02;100.00
70027;BME280;57506;50.092;15.804;2022-11-23T03:14:16;98016.78;;;1.99;100.00
70027;BME280;57506;50.092;15.804;2022-11-23T03:16:42;98012.50;;;1.90;100.00
70027;BME280;57506;50.092;15.804;2022-11-23T03:19:08;98016.63;;;1.93;100.00
70027;BME280;57506;50.092;15.804;2022-11-23T03:21:33;98010.81;;;1.89;100.00
70027;BME280;57506;50.092;15.804;2022-11-23T03:23:59;98008.34;;;1.88;100.00
70027;BME280;57506;50.092;15.804;2022-11-23T03:26:24;97978.28;;;1.79;100.00
70027;BME280;57506;50.092;15.804;2022-11-23T03:28:50;97946.94;;;1.66;100.00
70027;BME280;57506;50.092;15.804;2022-11-23T03:31:15;98004.66;;;2.05;100.00
70027;BME280;57506;50.092;15.804;2022-11-23T03:33:41;98009.63;;;2.08;100.00
70027;BME280;57506;50.092;15.804;2022-11-23T03:36:07;98009.09;;;2.13;100.00
70027;BME280;57506;50.092;15.804;2022-11-23T03:38:32;98004.16;;;2.09;100.00
70027;BME280;57506;50.092;15.804;2022-11-23T03:40:58;97997.38;;;1.91;100.00
70027;BME280;57506;50.092;15.804;2022-11-23T03:43:24;98020.59;;;2.05;100.00
70027;BME280;57506;50.092;15.804;2022-11-23T03:45:50;98006.00;;;1.93;100.00
70027;BME280;57506;50.092;15.804;2022-11-23T03:48:16;98000.66;;;2.01;100.00
70027;BME280;57506;50.092;15.804;2022-11-23T03:50:43;98006.31;;;2.06;100.00
70027;BME280;57506;50.092;15.804;2022-11-23T03:53:08;97994.03;;;2.05;100.00
70027;BME280;57506;50.092;15.804;2022-11-23T03:55:34;97994.69;;;2.07;100.00
70027;BME280;57506;50.092;15.804;2022-11-23T03:58:00;97995.81;;;2.13;100.00
70027;BME280;57506;50.092;15.804;2022-11-23T04:00:26;97970.78;;;2.07;100.00
70027;BME280;57506;50.092;15.804;2022-11-23T04:02:52;97989.69;;;2.12;100.00
70027;BME280;57506;50.092;15.804;2022-11-23T04:05:18;98013.53;;;2.36;100.00
70027;BME280;57506;50.092;15.804;2022-11-23T04:07:45;98013.22;;;2.31;100.00
70027;BME280;57506;50.092;15.804;2022-11-23T04:10:15;97961.81;;;2.08;100.00
70027;BME280;57506;50.092;15.804;2022-11-23T04:12:40;97987.00;;;2.20;100.00
70027;BME280;57506;50.092;15.804;2022-11-23T04:15:06;98005.25;;;2.31;100.00
70027;BME280;57506;50.092;15.804;2022-11-23T04:17:32;98006.72;;;2.34;100.00
70027;BME280;57506;50.092;15.804;2022-11-23T04:19:58;98008.56;;;2.33;100.00
70027;BME280;57506;50.092;15.804;2022-11-23T04:22:23;97996.66;;;2.21;100.00
70027;BME280;57506;50.092;15.804;2022-11-23T04:24:49;98012.94;;;2.26;100.00
70027;BME280;57506;50.092;15.804;2022-11-23T04:27:14;97981.41;;;2.07;100.00
70027;BME280;57506;50.092;15.804;2022-11-23T04:29:40;98007.78;;;2.25;100.00
70027;BME280;57506;50.092;15.804;2022-11-23T04:32:05;97991.34;;;2.21;100.00
70027;BME280;57506;50.092;15.804;2022-11-23T04:34:31;97984.03;;;2.15;100.00
70027;BME280;57506;50.092;15.804;2022-11-23T04:36:56;98000.78;;;2.24;100.00
70027;BME280;57506;50.092;15.804;2022-11-23T04:39:22;97995.00;;;2.20;100.00
70027;BME280;57506;50.092;15.804;2022-11-23T04:41:47;97998.63;;;2.19;100.00
70027;BME280;57506;50.092;15.804;2022-11-23T04:44:13;97988.06;;;2.11;100.00
70027;BME280;57506;50.092;15.804;2022-11-23T04:46:38;98006.78;;;2.18;100.00
70027;BME280;57506;50.092;15.804;2022-11-23T04:49:04;97998.97;;;2.16;100.00
70027;BME280;57506;50.092;15.804;2022-11-23T04:51:29;97987.38;;;2.09;100.00
70027;BME280;57506;50.092;15.804;2022-11-23T04:53:55;97979.56;;;2.07;100.00
70027;BME280;57506;50.092;15.804;2022-11-23T04:56:20;98024.84;;;2.30;100.00
70027;BME280;57506;50.092;15.804;2022-11-23T04:58:46;97957.53;;;1.91;100.00
70027;BME280;57506;50.092;15.804;2022-11-23T05:01:11;98019.06;;;2.27;100.00
70027;BME280;57506;50.092;15.804;2022-11-23T05:03:37;98011.09;;;2.19;100.00
70027;BME280;57506;50.092;15.804;2022-11-23T05:06:03;98005.81;;;2.10;100.00
70027;BME280;57506;50.092;15.804;2022-11-23T05:08:29;98027.72;;;2.21;100.00
70027;BME280;57506;50.092;15.804;2022-11-23T05:10:55;98026.38;;;2.25;100.00
70027;BME280;57506;50.092;15.804;2022-11-23T05:13:21;98021.91;;;2.25;100.00
70027;BME280;57506;50.092;15.804;2022-11-23T05:15:47;98041.47;;;2.40;100.00
70027;BME280;57506;50.092;15.804;2022-11-23T05:18:13;98046.06;;;2.46;100.00
70027;BME280;57506;50.092;15.804;2022-11-23T05:20:38;98052.88;;;2.49;100.00
70027;BME280;57506;50.092;15.804;2022-11-23T05:23:04;98050.56;;;2.54;100.00
70027;BME280;57506;50.092;15.804;2022-11-23T05:25:30;98039.09;;;2.54;100.00
70027;BME280;57506;50.092;15.804;2022-11-23T05:27:56;98038.09;;;2.55;100.00
70027;BME280;57506;50.092;15.804;2022-11-23T05:30:22;98053.00;;;2.64;100.00
70027;BME280;57506;50.092;15.804;2022-11-23T05:32:48;98044.38;;;2.62;100.00
70027;BME280;57506;50.092;15.804;2022-11-23T05:35:14;98043.69;;;2.68;100.00
70027;BME280;57506;50.092;15.804;2022-11-23T05:37:40;98051.28;;;2.79;100.00
70027;BME280;57506;50.092;15.804;2022-11-23T05:40:07;98023.56;;;2.65;100.00
70027;BME280;57506;50.092;15.804;2022-11-23T05:42:32;98037.97;;;2.79;100.00
70027;BME280;57506;50.092;15.804;2022-11-23T05:44:58;98057.34;;;2.96;100.00
70027;BME280;57506;50.092;15.804;2022-11-23T05:47:24;98057.91;;;2.91;100.00
70027;BME280;57506;50.092;15.804;2022-11-23T05:49:49;98057.34;;;2.96;100.00
70027;BME280;57506;50.092;15.804;2022-11-23T05:52:15;98055.59;;;2.88;100.00
70027;BME280;57506;50.092;15.804;2022-11-23T05:54:41;98056.06;;;2.92;100.00
70027;BME280;57506;50.092;15.804;2022-11-23T05:57:07;98056.19;;;2.98;100.00
70027;BME280;57506;50.092;15.804;2022-11-23T05:59:32;98056.53;;;2.95;100.00
70027;BME280;57506;50.092;15.804;2022-11-23T06:01:58;98025.50;;;2.79;100.00
70027;BME280;57506;50.092;15.804;2022-11-23T06:04:23;98052.09;;;2.88;100.00
70027;BME280;57506;50.092;15.804;2022-11-23T06:06:49;98051.56;;;2.92;100.00
70027;BME280;57506;50.092;15.804;2022-11-23T06:09:14;98063.16;;;2.99;100.00
70027;BME280;57506;50.092;15.804;2022-11-23T06:11:40;98061.84;;;2.95;100.00
70027;BME280;57506;50.092;15.804;2022-11-23T06:14:05;98066.84;;;2.98;100.00
70027;BME280;57506;50.092;15.804;2022-11-23T06:16:31;98078.31;;;2.99;100.00
70027;BME280;57506;50.092;15.804;2022-11-23T06:18:56;98077.13;;;3.01;100.00
70027;BME280;57506;50.092;15.804;2022-11-23T06:21:22;98069.19;;;2.93;100.00
70027;BME280;57506;50.092;15.804;2022-11-23T06:23:47;98065.41;;;2.88;100.00
70027;BME280;57506;50.092;15.804;2022-11-23T06:26:13;98076.22;;;2.78;100.00
70027;BME280;57506;50.092;15.804;2022-11-23T06:28:39;98085.19;;;2.85;100.00
70027;BME280;57506;50.092;15.804;2022-11-23T06:31:06;98077.06;;;2.78;100.00
70027;BME280;57506;50.092;15.804;2022-11-23T06:33:35;98090.19;;;2.88;100.00
70027;BME280;57506;50.092;15.804;2022-11-23T06:36:01;98097.31;;;2.88;100.00
70027;BME280;57506;50.092;15.804;2022-11-23T06:38:27;98075.22;;;2.79;100.00
70027;BME280;57506;50.092;15.804;2022-11-23T06:40:59;98091.16;;;2.87;100.00
70027;BME280;57506;50.092;15.804;2022-11-23T06:43:26;98078.38;;;2.83;100.00
70027;BME280;57506;50.092;15.804;2022-11-23T06:45:52;98077.53;;;2.82;100.00
70027;BME280;57506;50.092;15.804;2022-11-23T06:48:18;98081.69;;;2.85;100.00
70027;BME280;57506;50.092;15.804;2022-11-23T06:50:43;98097.44;;;2.94;100.00
70027;BME280;57506;50.092;15.804;2022-11-23T06:53:09;98086.69;;;2.88;100.00
70027;BME280;57506;50.092;15.804;2022-11-23T06:55:38;98082.53;;;2.77;100.00
70027;BME280;57506;50.092;15.804;2022-11-23T06:58:04;98079.94;;;2.69;100.00
70027;BME280;57506;50.092;15.804;2022-11-23T07:00:30;98073.44;;;2.63;100.00
70027;BME280;57506;50.092;15.804;2022-11-23T07:02:56;98088.91;;;2.68;100.00
70027;BME280;57506;50.092;15.804;2022-11-23T07:05:23;98082.75;;;2.67;100.00
70027;BME280;57506;50.092;15.804;2022-11-23T07:07:48;98100.53;;;2.75;100.00
70027;BME280;57506;50.092;15.804;2022-11-23T07:10:14;98098.69;;;2.75;100.00
70027;BME280;57506;50.092;15.804;2022-11-23T07:12:40;98098.50;;;2.77;100.00
70027;BME280;57506;50.092;15.804;2022-11-23T07:15:06;98106.66;;;2.84;100.00
70027;BME280;57506;50.092;15.804;2022-11-23T07:17:32;98095.16;;;2.83;100.00
70027;BME280;57506;50.092;15.804;2022-11-23T07:20:02;98108.72;;;3.04;100.00
70027;BME280;57506;50.092;15.804;2022-11-23T07:22:28;98084.69;;;2.90;100.00
70027;BME280;57506;50.092;15.804;2022-11-23T07:24:53;98121.50;;;3.09;100.00
70027;BME280;57506;50.092;15.804;2022-11-23T07:27:19;98119.03;;;3.07;100.00
70027;BME280;57506;50.092;15.804;2022-11-23T07:29:45;98121.50;;;3.09;100.00
70027;BME280;57506;50.092;15.804;2022-11-23T07:32:10;98125.66;;;3.11;100.00
70027;BME280;57506;50.092;15.804;2022-11-23T07:34:36;98127.81;;;3.16;100.00
70027;BME280;57506;50.092;15.804;2022-11-23T07:37:01;98122.31;;;3.17;100.00
70027;BME280;57506;50.092;15.804;2022-11-23T07:39:28;98136.22;;;3.28;100.00
70027;BME280;57506;50.092;15.804;2022-11-23T07:41:54;98130.41;;;3.32;100.00
70027;BME280;57506;50.092;15.804;2022-11-23T07:44:19;98140.13;;;3.48;100.00
70027;BME280;57506;50.092;15.804;2022-11-23T07:46:45;98129.06;;;3.36;100.00
70027;BME280;57506;50.092;15.804;2022-11-23T07:49:10;98147.78;;;3.51;100.00
70027;BME280;57506;50.092;15.804;2022-11-23T07:51:36;98149.09;;;3.55;100.00
70027;BME280;57506;50.092;15.804;2022-11-23T07:54:01;98127.41;;;3.58;100.00
70027;BME280;57506;50.092;15.804;2022-11-23T07:56:27;98149.13;;;3.78;100.00
70027;BME280;57506;50.092;15.804;2022-11-23T07:58:53;98149.19;;;3.93;100.00
70027;BME280;57506;50.092;15.804;2022-11-23T08:01:18;98159.06;;;4.07;100.00
70027;BME280;57506;50.092;15.804;2022-11-23T08:03:45;98171.22;;;4.09;100.00
70027;BME280;57506;50.092;15.804;2022-11-23T08:06:12;98159.03;;;4.15;100.00
70027;BME280;57506;50.092;15.804;2022-11-23T08:08:53;98162.66;;;4.22;100.00
70027;BME280;57506;50.092;15.804;2022-11-23T08:11:20;98169.56;;;4.31;100.00
70027;BME280;57506;50.092;15.804;2022-11-23T08:13:47;98157.81;;;4.40;100.00
70027;BME280;57506;50.092;15.804;2022-11-23T08:16:12;98156.13;;;4.39;100.00
70027;BME280;57506;50.092;15.804;2022-11-23T08:18:38;98140.88;;;4.33;100.00
70027;BME280;57506;50.092;15.804;2022-11-23T08:21:04;98138.56;;;4.30;100.00
70027;BME280;57506;50.092;15.804;2022-11-23T08:23:29;98140.91;;;4.48;100.00
70027;BME280;57506;50.092;15.804;2022-11-23T08:25:55;98146.81;;;4.58;100.00
70027;BME280;57506;50.092;15.804;2022-11-23T08:28:20;98142.88;;;4.69;100.00
70027;BME280;57506;50.092;15.804;2022-11-23T08:30:46;98155.22;;;4.84;100.00
70027;BME280;57506;50.092;15.804;2022-11-23T08:33:12;98156.78;;;4.79;100.00
70027;BME280;57506;50.092;15.804;2022-11-23T08:35:40;98142.72;;;4.85;100.00
70027;BME280;57506;50.092;15.804;2022-11-23T08:38:07;98145.94;;;4.95;100.00
70027;BME280;57506;50.092;15.804;2022-11-23T08:40:34;98141.59;;;4.94;100.00
70027;BME280;57506;50.092;15.804;2022-11-23T08:43:00;98134.41;;;4.95;100.00
70027;BME280;57506;50.092;15.804;2022-11-23T08:45:26;98139.94;;;5.08;100.00
70027;BME280;57506;50.092;15.804;2022-11-23T08:47:52;98136.72;;;5.12;100.00
70027;BME280;57506;50.092;15.804;2022-11-23T08:50:18;98133.75;;;5.22;100.00
70027;BME280;57506;50.092;15.804;2022-11-23T08:52:44;98126.97;;;5.19;100.00
70027;BME280;57506;50.092;15.804;2022-11-23T08:55:10;98138.44;;;5.20;100.00
70027;BME280;57506;50.092;15.804;2022-11-23T08:57:36;98122.63;;;5.04;100.00
70027;BME280;57506;50.092;15.804;2022-11-23T09:00:04;98128.72;;;5.12;100.00
70027;BME280;57506;50.092;15.804;2022-11-23T09:02:30;98115.84;;;5.01;100.00
70027;BME280;57506;50.092;15.804;2022-11-23T09:04:55;98120.59;;;5.06;100.00
70027;BME280;57506;50.092;15.804;2022-11-23T09:07:21;98122.06;;;5.23;100.00
70027;BME280;57506;50.092;15.804;2022-11-23T09:09:46;98118.47;;;5.31;100.00
70027;BME280;57506;50.092;15.804;2022-11-23T09:12:12;98127.75;;;5.49;100.00
70027;BME280;57506;50.092;15.804;2022-11-23T09:14:38;98099.66;;;5.39;100.00
70027;BME280;57506;50.092;15.804;2022-11-23T09:17:04;98123.22;;;5.50;100.00
70027;BME280;57506;50.092;15.804;2022-11-23T09:19:29;98106.59;;;5.54;100.00
70027;BME280;57506;50.092;15.804;2022-11-23T09:21:55;98114.81;;;5.68;100.00
70027;BME280;57506;50.092;15.804;2022-11-23T09:24:22;98125.81;;;5.79;100.00
70027;BME280;57506;50.092;15.804;2022-11-23T09:26:47;98121.00;;;5.89;100.00
70027;BME280;57506;50.092;15.804;2022-11-23T09:29:13;98121.00;;;5.89;100.00
70027;BME280;57506;50.092;15.804;2022-11-23T09:31:38;98112.81;;;5.91;100.00
70027;BME280;57506;50.092;15.804;2022-11-23T09:34:04;98108.16;;;6.00;100.00
70027;BME280;57506;50.092;15.804;2022-11-23T09:36:30;98097.97;;;5.88;100.00
70027;BME280;57506;50.092;15.804;2022-11-23T09:38:56;98108.03;;;6.08;100.00
70027;BME280;57506;50.092;15.804;2022-11-23T09:41:38;98101.91;;;6.14;100.00
70027;BME280;57506;50.092;15.804;2022-11-23T09:50:06;98076.66;;;6.23;100.00
70027;BME280;57506;50.092;15.804;2022-11-23T09:52:35;98092.63;;;6.38;100.00
70027;BME280;57506;50.092;15.804;2022-11-23T09:55:09;98096.84;;;6.47;100.00
70027;BME280;57506;50.092;15.804;2022-11-23T09:57:39;98099.72;;;6.24;100.00
70027;BME280;57506;50.092;15.804;2022-11-23T10:00:16;98091.50;;;6.25;100.00
70027;BME280;57506;50.092;15.804;2022-11-23T10:02:43;98081.00;;;6.24;100.00
70027;BME280;57506;50.092;15.804;2022-11-23T10:05:16;98077.94;;;6.27;100.00
70027;BME280;57506;50.092;15.804;2022-11-23T10:13:37;98097.75;;;6.32;100.00
70027;BME280;57506;50.092;15.804;2022-11-23T10:19:30;98097.13;;;6.30;100.00
70027;BME280;57506;50.092;15.804;2022-11-23T10:22:12;98101.38;;;6.25;100.00
70027;BME280;57506;50.092;15.804;2022-11-23T10:24:45;98079.50;;;6.15;100.00
70027;BME280;57506;50.092;15.804;2022-11-23T10:27:19;98092.47;;;6.18;100.00
70027;BME280;57506;50.092;15.804;2022-11-23T10:29:46;98091.31;;;6.27;100.00
70027;BME280;57506;50.092;15.804;2022-11-23T10:32:37;98090.63;;;6.18;100.00
70027;BME280;57506;50.092;15.804;2022-11-23T10:35:54;98088.78;;;6.19;100.00
70027;BME280;57506;50.092;15.804;2022-11-23T10:38:13;98084.03;;;6.14;100.00
70027;BME280;57506;50.092;15.804;2022-11-23T10:41:02;98072.72;;;6.19;100.00
70027;BME280;57506;50.092;15.804;2022-11-23T10:46:30;98078.06;;;6.19;100.00
70027;BME280;57506;50.092;15.804;2022-11-23T10:49:25;98082.56;;;6.12;100.00
70027;BME280;57506;50.092;15.804;2022-11-23T10:51:53;98078.03;;;6.12;100.00
70027;BME280;57506;50.092;15.804;2022-11-23T10:56:57;98080.59;;;5.99;100.00
70027;BME280;57506;50.092;15.804;2022-11-23T11:02:17;98073.13;;;5.94;100.00
70027;BME280;57506;50.092;15.804;2022-11-23T11:04:44;98068.34;;;5.90;100.00
70027;BME280;57506;50.092;15.804;2022-11-23T11:07:27;98082.81;;;5.95;100.00
70027;BME280;57506;50.092;15.804;2022-11-23T11:09:58;98079.50;;;5.93;100.00
70027;BME280;57506;50.092;15.804;2022-11-23T11:12:27;98065.38;;;6.00;100.00
70027;BME280;57506;50.092;15.804;2022-11-23T11:17:34;98042.13;;;6.00;100.00
70027;BME280;57506;50.092;15.804;2022-11-23T11:20:28;98064.28;;;6.15;100.00
70027;BME280;57506;50.092;15.804;2022-11-23T11:23:00;98052.69;;;6.08;100.00
70027;BME280;57506;50.092;15.804;2022-11-23T11:25:44;98057.13;;;6.01;100.00
70027;BME280;57506;50.092;15.804;2022-11-23T11:28:39;98055.28;;;6.02;100.00
70027;BME280;57506;50.092;15.804;2022-11-23T11:34:10;98043.16;;;5.99;100.00
70027;BME280;57506;50.092;15.804;2022-11-23T11:36:49;98056.28;;;5.94;100.00
70027;BME280;57506;50.092;15.804;2022-11-23T11:39:34;98052.19;;;5.98;100.00
70027;BME280;57506;50.092;15.804;2022-11-23T11:42:04;98053.78;;;5.92;100.00
70027;BME280;57506;50.092;15.804;2022-11-23T11:44:35;98065.13;;;5.94;100.00
70027;BME280;57506;50.092;15.804;2022-11-23T11:47:08;98048.81;;;5.89;100.00
70027;BME280;57506;50.092;15.804;2022-11-23T11:49:43;98043.09;;;5.92;100.00
70027;BME280;57506;50.092;15.804;2022-11-23T11:52:16;98054.47;;;6.01;100.00
70027;BME280;57506;50.092;15.804;2022-11-23T11:55:03;98046.13;;;5.89;100.00
70027;BME280;57506;50.092;15.804;2022-11-23T11:57:46;98051.34;;;5.76;100.00
70027;BME280;57506;50.092;15.804;2022-11-23T12:00:17;98067.66;;;5.81;100.00
70027;BME280;57506;50.092;15.804;2022-11-23T12:05:24;98050.47;;;5.90;100.00
70027;BME280;57506;50.092;15.804;2022-11-23T12:08:08;98055.63;;;5.92;100.00
70027;BME280;57506;50.092;15.804;2022-11-23T12:10:40;98064.84;;;5.89;100.00
70027;BME280;57506;50.092;15.804;2022-11-23T12:13:21;98063.53;;;5.85;100.00
70027;BME280;57506;50.092;15.804;2022-11-23T12:19:29;98071.88;;;5.90;100.00
70027;BME280;57506;50.092;15.804;2022-11-23T12:27:36;98072.34;;;5.79;100.00
70027;BME280;57506;50.092;15.804;2022-11-23T12:30:23;98075.66;;;5.81;100.00
70027;BME280;57506;50.092;15.804;2022-11-23T12:37:58;98069.50;;;5.81;100.00
70027;BME280;57506;50.092;15.804;2022-11-23T12:40:44;98070.38;;;5.67;100.00
70027;BME280;57506;50.092;15.804;2022-11-23T12:43:30;98077.56;;;5.66;100.00
70027;BME280;57506;50.092;15.804;2022-11-23T12:56:59;98091.56;;;5.68;100.00
70027;BME280;57506;50.092;15.804;2022-11-23T12:59:53;98090.84;;;5.59;100.00
70027;BME280;57506;50.092;15.804;2022-11-23T13:05:46;98088.56;;;5.56;100.00
70027;BME280;57506;50.092;15.804;2022-11-23T13:21:48;98104.78;;;5.55;100.00
70027;BME280;57506;50.092;15.804;2022-11-23T13:24:34;98088.69;;;5.48;100.00
70027;BME280;57506;50.092;15.804;2022-11-23T13:29:53;98094.03;;;5.48;100.00
70027;BME280;57506;50.092;15.804;2022-11-23T13:40:35;98100.84;;;5.36;100.00
70027;BME280;57506;50.092;15.804;2022-11-23T13:43:03;98105.63;;;5.41;100.00
70027;BME280;57506;50.092;15.804;2022-11-23T13:45:30;98090.81;;;5.38;100.00
70027;BME280;57506;50.092;15.804;2022-11-23T13:48:17;98103.97;;;5.40;100.00
70027;BME280;57506;50.092;15.804;2022-11-23T13:55:47;98101.63;;;5.30;100.00
70027;BME280;57506;50.092;15.804;2022-11-23T14:03:54;98106.78;;;5.32;100.00
70027;BME280;57506;50.092;15.804;2022-11-23T14:14:25;98111.84;;;5.12;100.00
70027;BME280;57506;50.092;15.804;2022-11-23T14:22:17;98112.50;;;4.99;100.00
70027;BME280;57506;50.092;15.804;2022-11-23T14:30:39;98096.03;;;4.81;100.00
70027;BME280;57506;50.092;15.804;2022-11-23T14:36:10;98092.19;;;4.69;100.00
70027;BME280;57506;50.092;15.804;2022-11-23T14:39:07;98088.56;;;4.62;100.00
70027;BME280;57506;50.092;15.804;2022-11-23T14:41:38;98080.75;;;4.45;100.00
70027;BME280;57506;50.092;15.804;2022-11-23T14:44:11;98089.69;;;4.52;100.00
70027;BME280;57506;50.092;15.804;2022-11-23T14:47:01;98092.88;;;4.48;100.00
70027;BME280;57506;50.092;15.804;2022-11-23T14:49:27;98079.25;;;4.43;100.00
70027;BME280;57506;50.092;15.804;2022-11-23T14:51:53;98071.72;;;4.32;100.00
70027;BME280;57506;50.092;15.804;2022-11-23T14:54:19;98075.28;;;4.24;100.00
70027;BME280;57506;50.092;15.804;2022-11-23T14:56:46;98074.91;;;4.27;100.00
70027;BME280;57506;50.092;15.804;2022-11-23T15:01:44;98064.16;;;4.20;100.00
70027;BME280;57506;50.092;15.804;2022-11-23T15:04:22;98072.59;;;4.24;100.00
70027;BME280;57506;50.092;15.804;2022-11-23T15:06:49;98074.00;;;4.20;100.00
70027;BME280;57506;50.092;15.804;2022-11-23T15:14:43;98063.72;;;3.94;100.00
70027;BME280;57506;50.092;15.804;2022-11-23T15:17:13;98064.19;;;3.98;100.00